Terminal Aerodrome Forecast
Issued by NWS

Home | Current Version | Previous Version | Text Only | Print | Product List | Glossary On
Versions: 1 2 3 4 5 6 7 8 9 10 11 12 13 14 15 16 17 18 19 20 21 22 23 24 25 26 27
000
FTUS46 KLOX 310333 AAA
TAFLAX
TAF AMD
KLAX 310333Z 3104/0106 25006KT P6SM FEW150 SCT250
     FM310900 VRB03KT P6SM BKN009
     FM311500 VRB03KT P6SM OVC012
     FM311800 25010KT P6SM SCT015
     FM312200 27012G20KT P6SM SKC
     FM010400 25007KT P6SM SKC=

USA.gov is the U.S. government's official web portal to all federal, state and local government web resources and services.